N501ST KOGD-KLGB
Flight info
| Callsign | N501ST |
|---|---|
| Flight time | 1h 53m |
| Altitude | 28000 |
| Route | TCH DRAPR LOLIC MLF/N0278F160 V21 SLI |
| Aircraft | TBM8/L-SDFGRWY/S |
Departure
| Time | 2026-05-05 14:51 |
|---|---|
| Airport | Ogden Hinckley Airport (KOGD) |
Arrival
| Time | 2026-05-05 16:44 |
|---|---|
| Airport | Long Beach International Airport (KLGB) |
| Time | Latitude | Longitude | Altitude | Speed | Heading |
|---|---|---|---|---|---|
| 2026-05-05 14:39 | 41.19395 | -112.00946 | 4450 ft | 0 kts | 224° |
| 2026-05-05 14:44 | 41.19396 | -112.00976 | 4450 ft | 12 kts | 307° |
| 2026-05-05 14:44 | 41.19455 | -112.00958 | 4449 ft | 11 kts | 38° |
| 2026-05-05 14:45 | 41.19522 | -112.00871 | 4448 ft | 15 kts | 45° |
| 2026-05-05 14:45 | 41.19596 | -112.00769 | 4444 ft | 16 kts | 46° |
| 2026-05-05 14:45 | 41.19683 | -112.00657 | 4438 ft | 18 kts | 45° |
| 2026-05-05 14:45 | 41.19772 | -112.00540 | 4433 ft | 19 kts | 44° |
| 2026-05-05 14:46 | 41.19868 | -112.00415 | 4428 ft | 19 kts | 45° |
| 2026-05-05 14:46 | 41.19960 | -112.00294 | 4425 ft | 18 kts | 45° |
| 2026-05-05 14:46 | 41.20050 | -112.00174 | 4421 ft | 18 kts | 45° |
| 2026-05-05 14:46 | 41.20125 | -112.00083 | 4420 ft | 13 kts | 33° |
| 2026-05-05 14:47 | 41.20208 | -112.00025 | 4416 ft | 14 kts | 37° |
| 2026-05-05 14:47 | 41.20280 | -111.99949 | 4414 ft | 11 kts | 18° |
| 2026-05-05 14:47 | 41.20289 | -111.99946 | 4414 ft | 0 kts | 8° |
| 2026-05-05 14:49 | 41.20340 | -111.99972 | 4414 ft | 15 kts | 316° |
| 2026-05-05 14:49 | 41.20357 | -112.00041 | 4414 ft | 6 kts | 227° |
| 2026-05-05 14:49 | 41.20252 | -112.00179 | 4420 ft | 41 kts | 224° |
| 2026-05-05 14:50 | 41.19951 | -112.00576 | 4429 ft | 80 kts | 225° |
| 2026-05-05 14:50 | 41.19510 | -112.01195 | 4559 ft | 99 kts | 225° |
| 2026-05-05 14:50 | 41.19192 | -112.01666 | 4713 ft | 108 kts | 224° |
| 2026-05-05 14:50 | 41.18459 | -112.02733 | 5025 ft | 129 kts | 224° |
| 2026-05-05 14:51 | 41.17836 | -112.03635 | 5456 ft | 135 kts | 224° |
| 2026-05-05 14:51 | 41.17208 | -112.04559 | 5865 ft | 135 kts | 226° |
| 2026-05-05 14:51 | 41.16576 | -112.05486 | 6296 ft | 134 kts | 223° |
| 2026-05-05 14:51 | 41.15926 | -112.06382 | 6684 ft | 137 kts | 224° |
| 2026-05-05 14:52 | 41.15272 | -112.07320 | 6998 ft | 141 kts | 225° |
| 2026-05-05 14:52 | 41.14818 | -112.07966 | 7177 ft | 147 kts | 225° |
| 2026-05-05 14:52 | 41.14096 | -112.08972 | 7477 ft | 153 kts | 225° |
| 2026-05-05 14:52 | 41.13362 | -112.09982 | 7899 ft | 152 kts | 224° |
| 2026-05-05 14:53 | 41.12620 | -112.10987 | 8283 ft | 153 kts | 225° |
| 2026-05-05 14:53 | 41.11858 | -112.11977 | 8696 ft | 154 kts | 224° |
| 2026-05-05 14:53 | 41.11080 | -112.12971 | 9099 ft | 156 kts | 224° |
| 2026-05-05 14:53 | 41.10288 | -112.13971 | 9458 ft | 158 kts | 224° |
| 2026-05-05 14:54 | 41.09479 | -112.14975 | 9827 ft | 160 kts | 224° |
| 2026-05-05 14:54 | 41.08653 | -112.15980 | 10165 ft | 162 kts | 224° |
| 2026-05-05 14:54 | 41.07657 | -112.16679 | 10466 ft | 168 kts | 193° |
| 2026-05-05 14:54 | 41.06487 | -112.16916 | 10764 ft | 172 kts | 192° |
| 2026-05-05 14:55 | 41.05312 | -112.17238 | 11084 ft | 174 kts | 195° |
| 2026-05-05 14:55 | 41.04125 | -112.17616 | 11386 ft | 177 kts | 196° |
| 2026-05-05 14:55 | 41.00465 | -112.18821 | 12200 ft | 186 kts | 195° |
| 2026-05-05 14:55 | 40.90051 | -112.22191 | 14647 ft | 196 kts | 193° |
| 2026-05-05 14:56 | 40.79382 | -112.25635 | 16995 ft | 198 kts | 192° |
| 2026-05-05 14:56 | 40.68636 | -112.29096 | 19318 ft | 202 kts | 192° |
| 2026-05-05 14:56 | 40.57456 | -112.32684 | 21364 ft | 211 kts | 192° |
| 2026-05-05 14:56 | 40.45883 | -112.36385 | 23668 ft | 202 kts | 192° |
| 2026-05-05 14:57 | 40.35403 | -112.39711 | 25652 ft | 184 kts | 191° |
| 2026-05-05 14:57 | 40.25291 | -112.42935 | 27064 ft | 189 kts | 191° |
| 2026-05-05 14:57 | 40.23312 | -112.43561 | 27343 ft | 190 kts | 191° |
| 2026-05-05 14:57 | 40.18283 | -112.45158 | 27831 ft | 203 kts | 192° |
| 2026-05-05 14:58 | 40.12233 | -112.47080 | 27835 ft | 243 kts | 192° |
| 2026-05-05 14:58 | 40.05244 | -112.49289 | 27839 ft | 272 kts | 192° |
| 2026-05-05 14:58 | 39.97624 | -112.51690 | 27830 ft | 289 kts | 192° |
| 2026-05-05 14:58 | 39.91294 | -112.53681 | 27833 ft | 297 kts | 192° |
| 2026-05-05 14:59 | 39.87697 | -112.54812 | 27829 ft | 300 kts | 192° |
| 2026-05-05 14:59 | 39.85666 | -112.55448 | 27829 ft | 301 kts | 192° |
| 2026-05-05 14:59 | 39.83627 | -112.56087 | 27832 ft | 302 kts | 192° |
| 2026-05-05 14:59 | 39.81578 | -112.56730 | 27829 ft | 303 kts | 192° |
| 2026-05-05 15:00 | 39.79532 | -112.57371 | 27832 ft | 304 kts | 192° |
| 2026-05-05 15:00 | 39.78168 | -112.57797 | 27828 ft | 304 kts | 192° |
| 2026-05-05 15:00 | 39.75409 | -112.58659 | 27818 ft | 305 kts | 192° |
| 2026-05-05 15:00 | 39.73347 | -112.59304 | 27821 ft | 305 kts | 192° |
| 2026-05-05 15:01 | 39.71281 | -112.59949 | 27830 ft | 306 kts | 192° |
| 2026-05-05 15:01 | 39.69210 | -112.60596 | 27838 ft | 306 kts | 192° |
| 2026-05-05 15:01 | 39.67140 | -112.61240 | 27849 ft | 306 kts | 192° |
| 2026-05-05 15:01 | 39.65070 | -112.61887 | 27855 ft | 306 kts | 192° |
| 2026-05-05 15:02 | 39.62997 | -112.62532 | 27865 ft | 306 kts | 192° |
| 2026-05-05 15:02 | 39.60922 | -112.63179 | 27868 ft | 306 kts | 192° |
| 2026-05-05 15:02 | 39.58876 | -112.63814 | 27874 ft | 307 kts | 192° |
| 2026-05-05 15:02 | 39.56801 | -112.64460 | 27881 ft | 307 kts | 192° |
| 2026-05-05 15:03 | 39.54726 | -112.65105 | 27889 ft | 307 kts | 192° |
| 2026-05-05 15:03 | 39.52647 | -112.65750 | 27894 ft | 307 kts | 192° |
| 2026-05-05 15:03 | 39.50571 | -112.66394 | 27897 ft | 307 kts | 192° |
| 2026-05-05 15:03 | 39.48495 | -112.67038 | 27900 ft | 307 kts | 192° |
| 2026-05-05 15:04 | 39.46417 | -112.67684 | 27906 ft | 307 kts | 192° |
| 2026-05-05 15:04 | 39.44340 | -112.68326 | 27906 ft | 307 kts | 192° |
| 2026-05-05 15:04 | 39.42259 | -112.68969 | 27907 ft | 307 kts | 192° |
| 2026-05-05 15:04 | 39.40181 | -112.69612 | 27909 ft | 307 kts | 192° |
| 2026-05-05 15:05 | 39.36022 | -112.70899 | 27901 ft | 307 kts | 192° |
| 2026-05-05 15:05 | 39.33943 | -112.71541 | 27897 ft | 307 kts | 192° |
| 2026-05-05 15:05 | 39.31859 | -112.72184 | 27893 ft | 307 kts | 192° |
| 2026-05-05 15:06 | 39.29780 | -112.72825 | 27886 ft | 307 kts | 192° |
| 2026-05-05 15:06 | 39.27701 | -112.73466 | 27878 ft | 307 kts | 192° |
| 2026-05-05 15:06 | 39.25647 | -112.74098 | 27872 ft | 307 kts | 192° |
| 2026-05-05 15:06 | 39.23569 | -112.74737 | 27865 ft | 307 kts | 192° |
| 2026-05-05 15:07 | 39.21491 | -112.75377 | 27859 ft | 307 kts | 192° |
| 2026-05-05 15:07 | 39.19411 | -112.76017 | 27849 ft | 307 kts | 192° |
| 2026-05-05 15:07 | 39.17328 | -112.76655 | 27841 ft | 307 kts | 192° |
| 2026-05-05 15:07 | 39.15250 | -112.77296 | 27833 ft | 307 kts | 192° |
| 2026-05-05 15:08 | 39.13173 | -112.77934 | 27827 ft | 307 kts | 192° |
| 2026-05-05 15:08 | 39.11094 | -112.78570 | 27818 ft | 307 kts | 192° |
| 2026-05-05 15:08 | 39.09019 | -112.79205 | 27813 ft | 307 kts | 192° |
| 2026-05-05 15:08 | 39.06939 | -112.79841 | 27812 ft | 307 kts | 192° |
| 2026-05-05 15:09 | 39.04864 | -112.80477 | 27815 ft | 307 kts | 192° |
| 2026-05-05 15:09 | 39.02789 | -112.81115 | 27816 ft | 307 kts | 192° |
| 2026-05-05 15:09 | 39.00712 | -112.81750 | 27814 ft | 306 kts | 192° |
| 2026-05-05 15:09 | 38.98639 | -112.82381 | 27814 ft | 306 kts | 192° |
| 2026-05-05 15:10 | 38.96566 | -112.83015 | 27818 ft | 306 kts | 192° |
| 2026-05-05 15:10 | 38.94491 | -112.83648 | 27819 ft | 306 kts | 192° |
| 2026-05-05 15:10 | 38.92448 | -112.84273 | 27812 ft | 306 kts | 192° |
| 2026-05-05 15:10 | 38.90377 | -112.84902 | 27819 ft | 306 kts | 192° |
| 2026-05-05 15:11 | 38.88309 | -112.85533 | 27819 ft | 306 kts | 192° |
| 2026-05-05 15:11 | 38.86242 | -112.86161 | 27819 ft | 305 kts | 192° |
| 2026-05-05 15:11 | 38.84173 | -112.86792 | 27823 ft | 305 kts | 192° |
| 2026-05-05 15:11 | 38.82107 | -112.87423 | 27818 ft | 305 kts | 192° |
| 2026-05-05 15:12 | 38.80040 | -112.88048 | 27826 ft | 305 kts | 192° |
| 2026-05-05 15:12 | 38.77975 | -112.88677 | 27826 ft | 305 kts | 192° |
| 2026-05-05 15:12 | 38.75909 | -112.89304 | 27833 ft | 305 kts | 191° |
| 2026-05-05 15:12 | 38.73846 | -112.89929 | 27844 ft | 305 kts | 192° |
| 2026-05-05 15:13 | 38.71786 | -112.90556 | 27853 ft | 304 kts | 192° |
| 2026-05-05 15:13 | 38.69723 | -112.91181 | 27862 ft | 304 kts | 191° |
| 2026-05-05 15:13 | 38.67667 | -112.91800 | 27878 ft | 304 kts | 191° |
| 2026-05-05 15:13 | 38.65607 | -112.92424 | 27881 ft | 304 kts | 192° |
| 2026-05-05 15:14 | 38.63550 | -112.93048 | 27894 ft | 304 kts | 192° |
| 2026-05-05 15:14 | 38.61494 | -112.93670 | 27906 ft | 304 kts | 192° |
| 2026-05-05 15:14 | 38.59435 | -112.94293 | 27917 ft | 304 kts | 191° |
| 2026-05-05 15:14 | 38.57381 | -112.94911 | 27925 ft | 304 kts | 192° |
| 2026-05-05 15:15 | 38.55324 | -112.95534 | 27935 ft | 303 kts | 192° |
| 2026-05-05 15:15 | 38.53270 | -112.96153 | 27945 ft | 303 kts | 192° |
| 2026-05-05 15:15 | 38.51220 | -112.96772 | 27953 ft | 303 kts | 192° |
| 2026-05-05 15:15 | 38.49199 | -112.97380 | 27952 ft | 302 kts | 192° |
| 2026-05-05 15:16 | 38.47149 | -112.97997 | 27954 ft | 302 kts | 192° |
| 2026-05-05 15:16 | 38.45102 | -112.98612 | 27952 ft | 302 kts | 192° |
| 2026-05-05 15:16 | 38.43059 | -112.99228 | 27953 ft | 301 kts | 192° |
| 2026-05-05 15:16 | 38.41020 | -112.99841 | 27949 ft | 300 kts | 192° |
| 2026-05-05 15:17 | 38.38988 | -113.00453 | 27951 ft | 300 kts | 192° |
| 2026-05-05 15:17 | 38.36961 | -113.01071 | 27954 ft | 299 kts | 195° |
| 2026-05-05 15:17 | 38.35056 | -113.02134 | 27956 ft | 300 kts | 211° |
| 2026-05-05 15:17 | 38.33304 | -113.03579 | 27952 ft | 300 kts | 212° |
| 2026-05-05 15:18 | 38.31547 | -113.05004 | 27943 ft | 299 kts | 212° |
| 2026-05-05 15:18 | 38.29788 | -113.06424 | 27936 ft | 299 kts | 212° |
| 2026-05-05 15:18 | 38.28038 | -113.07850 | 27928 ft | 299 kts | 212° |
| 2026-05-05 15:18 | 38.26311 | -113.09258 | 27923 ft | 298 kts | 212° |
| 2026-05-05 15:19 | 38.24541 | -113.10696 | 27914 ft | 298 kts | 212° |
| 2026-05-05 15:19 | 38.22819 | -113.12093 | 27910 ft | 297 kts | 212° |
| 2026-05-05 15:19 | 38.21074 | -113.13509 | 27902 ft | 297 kts | 212° |
| 2026-05-05 15:19 | 38.19335 | -113.14920 | 27895 ft | 296 kts | 212° |
| 2026-05-05 15:20 | 38.17595 | -113.16329 | 27888 ft | 296 kts | 212° |
| 2026-05-05 15:20 | 38.15860 | -113.17735 | 27883 ft | 295 kts | 212° |
| 2026-05-05 15:20 | 38.14130 | -113.19136 | 27876 ft | 295 kts | 212° |
| 2026-05-05 15:20 | 38.12397 | -113.20540 | 27871 ft | 295 kts | 212° |
| 2026-05-05 15:21 | 38.10669 | -113.21937 | 27864 ft | 295 kts | 212° |
| 2026-05-05 15:21 | 38.08941 | -113.23333 | 27862 ft | 294 kts | 212° |
| 2026-05-05 15:21 | 38.07213 | -113.24730 | 27864 ft | 294 kts | 212° |
| 2026-05-05 15:21 | 38.05486 | -113.26124 | 27867 ft | 294 kts | 212° |
| 2026-05-05 15:22 | 38.03760 | -113.27517 | 27864 ft | 294 kts | 212° |
| 2026-05-05 15:22 | 38.02034 | -113.28908 | 27865 ft | 294 kts | 212° |
| 2026-05-05 15:22 | 38.00310 | -113.30298 | 27876 ft | 294 kts | 212° |
| 2026-05-05 15:22 | 37.98583 | -113.31689 | 27876 ft | 294 kts | 212° |
| 2026-05-05 15:23 | 37.96860 | -113.33077 | 27881 ft | 294 kts | 212° |
| 2026-05-05 15:23 | 37.95137 | -113.34464 | 27892 ft | 293 kts | 212° |
| 2026-05-05 15:23 | 37.93416 | -113.35847 | 27891 ft | 293 kts | 212° |
| 2026-05-05 15:23 | 37.91690 | -113.37236 | 27894 ft | 293 kts | 212° |
| 2026-05-05 15:24 | 37.89967 | -113.38619 | 27890 ft | 293 kts | 212° |
| 2026-05-05 15:24 | 37.88247 | -113.40000 | 27899 ft | 293 kts | 212° |
| 2026-05-05 15:24 | 37.86525 | -113.41382 | 27895 ft | 293 kts | 212° |
| 2026-05-05 15:24 | 37.84805 | -113.42761 | 27900 ft | 293 kts | 212° |
| 2026-05-05 15:25 | 37.83108 | -113.44122 | 27897 ft | 292 kts | 212° |
| 2026-05-05 15:25 | 37.81392 | -113.45496 | 27897 ft | 292 kts | 212° |
| 2026-05-05 15:25 | 37.79673 | -113.46872 | 27903 ft | 292 kts | 212° |
| 2026-05-05 15:25 | 37.77957 | -113.48245 | 27895 ft | 292 kts | 212° |
| 2026-05-05 15:26 | 37.76244 | -113.49615 | 27895 ft | 291 kts | 212° |
| 2026-05-05 15:26 | 37.74528 | -113.50986 | 27891 ft | 291 kts | 212° |
| 2026-05-05 15:26 | 37.72819 | -113.52352 | 27890 ft | 291 kts | 212° |
| 2026-05-05 15:26 | 37.71103 | -113.53720 | 27888 ft | 291 kts | 212° |
| 2026-05-05 15:27 | 37.69387 | -113.55092 | 27885 ft | 291 kts | 212° |
| 2026-05-05 15:27 | 37.67674 | -113.56458 | 27882 ft | 291 kts | 212° |
| 2026-05-05 15:27 | 37.65961 | -113.57821 | 27884 ft | 291 kts | 212° |
| 2026-05-05 15:27 | 37.64246 | -113.59189 | 27883 ft | 291 kts | 212° |
| 2026-05-05 15:28 | 37.62532 | -113.60553 | 27884 ft | 291 kts | 212° |
| 2026-05-05 15:28 | 37.60817 | -113.61918 | 27888 ft | 291 kts | 212° |
| 2026-05-05 15:28 | 37.59108 | -113.63276 | 27885 ft | 291 kts | 212° |
| 2026-05-05 15:28 | 37.57397 | -113.64637 | 27886 ft | 290 kts | 212° |
| 2026-05-05 15:29 | 37.55692 | -113.65990 | 27880 ft | 290 kts | 212° |
| 2026-05-05 15:29 | 37.53985 | -113.67347 | 27885 ft | 290 kts | 212° |
| 2026-05-05 15:29 | 37.52300 | -113.68685 | 27887 ft | 290 kts | 212° |
| 2026-05-05 15:29 | 37.50592 | -113.70038 | 27890 ft | 290 kts | 212° |
| 2026-05-05 15:30 | 37.48883 | -113.71390 | 27886 ft | 290 kts | 212° |
| 2026-05-05 15:30 | 37.47159 | -113.72759 | 27887 ft | 290 kts | 212° |
| 2026-05-05 15:30 | 37.45475 | -113.74093 | 27885 ft | 290 kts | 212° |
| 2026-05-05 15:30 | 37.43744 | -113.75461 | 27883 ft | 290 kts | 212° |
| 2026-05-05 15:31 | 37.42061 | -113.76791 | 27883 ft | 290 kts | 212° |
| 2026-05-05 15:31 | 37.40353 | -113.78144 | 27882 ft | 290 kts | 212° |
| 2026-05-05 15:31 | 37.38647 | -113.79491 | 27884 ft | 290 kts | 212° |
| 2026-05-05 15:31 | 37.36939 | -113.80838 | 27884 ft | 290 kts | 212° |
| 2026-05-05 15:32 | 37.35231 | -113.82187 | 27881 ft | 290 kts | 212° |
| 2026-05-05 15:32 | 37.33525 | -113.83533 | 27883 ft | 290 kts | 212° |
| 2026-05-05 15:32 | 37.31819 | -113.84877 | 27884 ft | 289 kts | 212° |
| 2026-05-05 15:32 | 37.30114 | -113.86221 | 27880 ft | 289 kts | 212° |
| 2026-05-05 15:33 | 37.28406 | -113.87564 | 27877 ft | 289 kts | 212° |
| 2026-05-05 15:33 | 37.26702 | -113.88905 | 27873 ft | 289 kts | 212° |
| 2026-05-05 15:33 | 37.24995 | -113.90248 | 27875 ft | 289 kts | 212° |
| 2026-05-05 15:33 | 37.23289 | -113.91589 | 27869 ft | 289 kts | 212° |
| 2026-05-05 15:34 | 37.21589 | -113.92924 | 27872 ft | 288 kts | 212° |
| 2026-05-05 15:34 | 37.19889 | -113.94259 | 27875 ft | 288 kts | 212° |
| 2026-05-05 15:34 | 37.18193 | -113.95591 | 27873 ft | 288 kts | 212° |
| 2026-05-05 15:34 | 37.16494 | -113.96924 | 27865 ft | 288 kts | 212° |
| 2026-05-05 15:35 | 37.14817 | -113.98238 | 27867 ft | 288 kts | 212° |
| 2026-05-05 15:35 | 37.13098 | -113.99585 | 27870 ft | 288 kts | 212° |
| 2026-05-05 15:35 | 37.11423 | -114.00897 | 27870 ft | 288 kts | 212° |
| 2026-05-05 15:35 | 37.09703 | -114.02242 | 27865 ft | 288 kts | 212° |
| 2026-05-05 15:36 | 37.08029 | -114.03553 | 27862 ft | 288 kts | 212° |
| 2026-05-05 15:36 | 37.06332 | -114.04879 | 27864 ft | 287 kts | 212° |
| 2026-05-05 15:36 | 37.04637 | -114.06205 | 27863 ft | 287 kts | 212° |
| 2026-05-05 15:36 | 37.02940 | -114.07530 | 27861 ft | 287 kts | 212° |
| 2026-05-05 15:37 | 37.01248 | -114.08850 | 27859 ft | 287 kts | 212° |
| 2026-05-05 15:37 | 36.99529 | -114.10192 | 27856 ft | 287 kts | 212° |
| 2026-05-05 15:37 | 36.97859 | -114.11494 | 27857 ft | 287 kts | 212° |
| 2026-05-05 15:37 | 36.96163 | -114.12816 | 27856 ft | 287 kts | 212° |
| 2026-05-05 15:38 | 36.94466 | -114.14137 | 27854 ft | 287 kts | 212° |
| 2026-05-05 15:38 | 36.92774 | -114.15455 | 27854 ft | 287 kts | 212° |
| 2026-05-05 15:38 | 36.91078 | -114.16774 | 27854 ft | 287 kts | 212° |
| 2026-05-05 15:38 | 36.89381 | -114.18095 | 27853 ft | 287 kts | 212° |
| 2026-05-05 15:39 | 36.87687 | -114.19412 | 27851 ft | 287 kts | 212° |
| 2026-05-05 15:39 | 36.85991 | -114.20730 | 27847 ft | 287 kts | 212° |
| 2026-05-05 15:39 | 36.84297 | -114.22045 | 27848 ft | 287 kts | 212° |
| 2026-05-05 15:39 | 36.82602 | -114.23360 | 27848 ft | 287 kts | 212° |
| 2026-05-05 15:40 | 36.80905 | -114.24677 | 27849 ft | 287 kts | 212° |
| 2026-05-05 15:40 | 36.79212 | -114.25989 | 27847 ft | 287 kts | 212° |
| 2026-05-05 15:40 | 36.77518 | -114.27302 | 27851 ft | 287 kts | 212° |
| 2026-05-05 15:40 | 36.75824 | -114.28612 | 27849 ft | 287 kts | 212° |
| 2026-05-05 15:41 | 36.74123 | -114.29912 | 27850 ft | 287 kts | 211° |
| 2026-05-05 15:41 | 36.72422 | -114.31212 | 27847 ft | 287 kts | 212° |
| 2026-05-05 15:41 | 36.70721 | -114.32513 | 27845 ft | 287 kts | 212° |
| 2026-05-05 15:41 | 36.69023 | -114.33814 | 27848 ft | 287 kts | 212° |
| 2026-05-05 15:42 | 36.67324 | -114.35113 | 27845 ft | 287 kts | 212° |
| 2026-05-05 15:42 | 36.65624 | -114.36412 | 27846 ft | 287 kts | 212° |
| 2026-05-05 15:42 | 36.63921 | -114.37712 | 27843 ft | 287 kts | 212° |
| 2026-05-05 15:42 | 36.62799 | -114.38570 | 27845 ft | 286 kts | 212° |
| 2026-05-05 15:43 | 36.61101 | -114.39867 | 27842 ft | 286 kts | 212° |
| 2026-05-05 15:43 | 36.59401 | -114.41163 | 27838 ft | 286 kts | 212° |
| 2026-05-05 15:43 | 36.57147 | -114.42881 | 27846 ft | 287 kts | 212° |
| 2026-05-05 15:43 | 36.56000 | -114.43757 | 27844 ft | 287 kts | 212° |
| 2026-05-05 15:44 | 36.53747 | -114.45471 | 27837 ft | 287 kts | 212° |
| 2026-05-05 15:44 | 36.52599 | -114.46345 | 27834 ft | 287 kts | 212° |
| 2026-05-05 15:44 | 36.50899 | -114.47639 | 27835 ft | 287 kts | 212° |
| 2026-05-05 15:44 | 36.49199 | -114.48933 | 27837 ft | 287 kts | 212° |
| 2026-05-05 15:45 | 36.47499 | -114.50226 | 27841 ft | 287 kts | 212° |
| 2026-05-05 15:45 | 36.45798 | -114.51517 | 27835 ft | 286 kts | 212° |
| 2026-05-05 15:45 | 36.44098 | -114.52808 | 27842 ft | 286 kts | 212° |
| 2026-05-05 15:45 | 36.42400 | -114.54097 | 27838 ft | 286 kts | 212° |
| 2026-05-05 15:46 | 36.40699 | -114.55387 | 27833 ft | 286 kts | 212° |
| 2026-05-05 15:46 | 36.38999 | -114.56674 | 27834 ft | 286 kts | 212° |
| 2026-05-05 15:46 | 36.37298 | -114.57965 | 27833 ft | 287 kts | 212° |
| 2026-05-05 15:46 | 36.35619 | -114.59235 | 27835 ft | 287 kts | 212° |
| 2026-05-05 15:47 | 36.33915 | -114.60526 | 27831 ft | 287 kts | 212° |
| 2026-05-05 15:47 | 36.32211 | -114.61815 | 27843 ft | 286 kts | 212° |
| 2026-05-05 15:47 | 36.30513 | -114.63099 | 27846 ft | 286 kts | 212° |
| 2026-05-05 15:47 | 36.28810 | -114.64386 | 27843 ft | 286 kts | 212° |
| 2026-05-05 15:48 | 36.27111 | -114.65669 | 27846 ft | 286 kts | 212° |
| 2026-05-05 15:48 | 36.25410 | -114.66953 | 27849 ft | 286 kts | 212° |
| 2026-05-05 15:48 | 36.23710 | -114.68236 | 27852 ft | 286 kts | 212° |
| 2026-05-05 15:48 | 36.22010 | -114.69519 | 27856 ft | 286 kts | 212° |
| 2026-05-05 15:49 | 36.20313 | -114.70797 | 27854 ft | 286 kts | 212° |
| 2026-05-05 15:49 | 36.18611 | -114.72079 | 27859 ft | 286 kts | 212° |
| 2026-05-05 15:49 | 36.16909 | -114.73360 | 27870 ft | 286 kts | 212° |
| 2026-05-05 15:49 | 36.15209 | -114.74641 | 27883 ft | 286 kts | 212° |
| 2026-05-05 15:50 | 36.13506 | -114.75923 | 27888 ft | 286 kts | 212° |
| 2026-05-05 15:50 | 36.11810 | -114.77198 | 27896 ft | 286 kts | 212° |
| 2026-05-05 15:50 | 36.10129 | -114.78460 | 27901 ft | 286 kts | 212° |
| 2026-05-05 15:50 | 36.08427 | -114.79738 | 27905 ft | 286 kts | 212° |
| 2026-05-05 15:51 | 36.06725 | -114.81017 | 27920 ft | 286 kts | 212° |
| 2026-05-05 15:51 | 36.05024 | -114.82294 | 27922 ft | 286 kts | 212° |
| 2026-05-05 15:51 | 36.03319 | -114.83570 | 27927 ft | 286 kts | 212° |
| 2026-05-05 15:51 | 36.01614 | -114.84849 | 27925 ft | 286 kts | 212° |
| 2026-05-05 15:52 | 35.99926 | -114.86147 | 27929 ft | 286 kts | 216° |
| 2026-05-05 15:52 | 35.98498 | -114.87848 | 27942 ft | 286 kts | 229° |
| 2026-05-05 15:52 | 35.97176 | -114.89681 | 27929 ft | 286 kts | 227° |
| 2026-05-05 15:52 | 35.95832 | -114.91495 | 27928 ft | 286 kts | 227° |
| 2026-05-05 15:53 | 35.94493 | -114.93312 | 27930 ft | 286 kts | 227° |
| 2026-05-05 15:53 | 35.93159 | -114.95136 | 27929 ft | 286 kts | 228° |
| 2026-05-05 15:53 | 35.91824 | -114.96958 | 27928 ft | 286 kts | 227° |
| 2026-05-05 15:53 | 35.90486 | -114.98779 | 27928 ft | 286 kts | 227° |
| 2026-05-05 15:54 | 35.89149 | -115.00599 | 27928 ft | 286 kts | 227° |
| 2026-05-05 15:54 | 35.87812 | -115.02416 | 27953 ft | 286 kts | 227° |
| 2026-05-05 15:54 | 35.86475 | -115.04234 | 27951 ft | 286 kts | 227° |
| 2026-05-05 15:54 | 35.85135 | -115.06056 | 27952 ft | 287 kts | 227° |
| 2026-05-05 15:55 | 35.83795 | -115.07875 | 27953 ft | 287 kts | 227° |
| 2026-05-05 15:55 | 35.82457 | -115.09692 | 27952 ft | 287 kts | 227° |
| 2026-05-05 15:55 | 35.81132 | -115.11488 | 27954 ft | 287 kts | 227° |
| 2026-05-05 15:55 | 35.79792 | -115.13303 | 27954 ft | 287 kts | 227° |
| 2026-05-05 15:56 | 35.78453 | -115.15119 | 27954 ft | 286 kts | 227° |
| 2026-05-05 15:56 | 35.77096 | -115.16957 | 27952 ft | 286 kts | 227° |
| 2026-05-05 15:56 | 35.75771 | -115.18751 | 27953 ft | 287 kts | 228° |
| 2026-05-05 15:56 | 35.74432 | -115.20562 | 27953 ft | 287 kts | 227° |
| 2026-05-05 15:57 | 35.73090 | -115.22377 | 27956 ft | 286 kts | 227° |
| 2026-05-05 15:57 | 35.71748 | -115.24189 | 27953 ft | 286 kts | 227° |
| 2026-05-05 15:57 | 35.70407 | -115.26000 | 27956 ft | 286 kts | 228° |
| 2026-05-05 15:57 | 35.69066 | -115.27810 | 27955 ft | 286 kts | 227° |
| 2026-05-05 15:58 | 35.67724 | -115.29621 | 27958 ft | 286 kts | 228° |
| 2026-05-05 15:58 | 35.66383 | -115.31429 | 27957 ft | 286 kts | 228° |
| 2026-05-05 15:58 | 35.65042 | -115.33237 | 27961 ft | 286 kts | 228° |
| 2026-05-05 15:58 | 35.63698 | -115.35044 | 27961 ft | 286 kts | 228° |
| 2026-05-05 15:59 | 35.62353 | -115.36855 | 27960 ft | 286 kts | 228° |
| 2026-05-05 15:59 | 35.61011 | -115.38660 | 27962 ft | 286 kts | 228° |
| 2026-05-05 15:59 | 35.59667 | -115.40465 | 27964 ft | 286 kts | 228° |
| 2026-05-05 15:59 | 35.58327 | -115.42268 | 27968 ft | 286 kts | 228° |
| 2026-05-05 16:00 | 35.56985 | -115.44071 | 27969 ft | 286 kts | 228° |
| 2026-05-05 16:00 | 35.55641 | -115.45872 | 27966 ft | 286 kts | 228° |
| 2026-05-05 16:00 | 35.54300 | -115.47673 | 27970 ft | 285 kts | 228° |
| 2026-05-05 16:00 | 35.52978 | -115.49448 | 27970 ft | 285 kts | 228° |
| 2026-05-05 16:01 | 35.51640 | -115.51247 | 27969 ft | 285 kts | 228° |
| 2026-05-05 16:01 | 35.50300 | -115.53045 | 27969 ft | 285 kts | 228° |
| 2026-05-05 16:01 | 35.48959 | -115.54840 | 27962 ft | 285 kts | 228° |
| 2026-05-05 16:01 | 35.47619 | -115.56634 | 27962 ft | 285 kts | 228° |
| 2026-05-05 16:02 | 35.46276 | -115.58429 | 27963 ft | 285 kts | 228° |
| 2026-05-05 16:02 | 35.44936 | -115.60222 | 27965 ft | 286 kts | 228° |
| 2026-05-05 16:02 | 35.43590 | -115.62021 | 27955 ft | 285 kts | 228° |
| 2026-05-05 16:02 | 35.42249 | -115.63813 | 27956 ft | 285 kts | 228° |
| 2026-05-05 16:03 | 35.40908 | -115.65601 | 27955 ft | 285 kts | 228° |
| 2026-05-05 16:03 | 35.39566 | -115.67392 | 27956 ft | 285 kts | 228° |
| 2026-05-05 16:03 | 35.38230 | -115.69173 | 27951 ft | 284 kts | 228° |
| 2026-05-05 16:03 | 35.36894 | -115.70956 | 27952 ft | 283 kts | 228° |
| 2026-05-05 16:04 | 35.35561 | -115.72731 | 27952 ft | 283 kts | 228° |
| 2026-05-05 16:04 | 35.34228 | -115.74505 | 27950 ft | 283 kts | 228° |
| 2026-05-05 16:04 | 35.32896 | -115.76276 | 27951 ft | 282 kts | 228° |
| 2026-05-05 16:04 | 35.31570 | -115.78042 | 27952 ft | 282 kts | 228° |
| 2026-05-05 16:05 | 35.30256 | -115.79787 | 27954 ft | 282 kts | 228° |
| 2026-05-05 16:05 | 35.28927 | -115.81553 | 27954 ft | 282 kts | 228° |
| 2026-05-05 16:05 | 35.27600 | -115.83316 | 27947 ft | 282 kts | 228° |
| 2026-05-05 16:05 | 35.26272 | -115.85080 | 27946 ft | 281 kts | 228° |
| 2026-05-05 16:06 | 35.24946 | -115.86837 | 27949 ft | 281 kts | 228° |
| 2026-05-05 16:06 | 35.23617 | -115.88599 | 27957 ft | 281 kts | 228° |
| 2026-05-05 16:06 | 35.22292 | -115.90354 | 27949 ft | 281 kts | 228° |
| 2026-05-05 16:06 | 35.20967 | -115.92109 | 27948 ft | 281 kts | 228° |
| 2026-05-05 16:07 | 35.19642 | -115.93864 | 27943 ft | 280 kts | 228° |
| 2026-05-05 16:07 | 35.18320 | -115.95612 | 27940 ft | 280 kts | 228° |
| 2026-05-05 16:07 | 35.16999 | -115.97358 | 27941 ft | 280 kts | 228° |
| 2026-05-05 16:07 | 35.15678 | -115.99106 | 27945 ft | 279 kts | 228° |
| 2026-05-05 16:08 | 35.14360 | -116.00846 | 27940 ft | 279 kts | 228° |
| 2026-05-05 16:08 | 35.13043 | -116.02584 | 27936 ft | 278 kts | 228° |
| 2026-05-05 16:08 | 35.11731 | -116.04316 | 27939 ft | 277 kts | 228° |
| 2026-05-05 16:08 | 35.10420 | -116.06045 | 27935 ft | 277 kts | 228° |
| 2026-05-05 16:09 | 35.09110 | -116.07771 | 27933 ft | 277 kts | 228° |
| 2026-05-05 16:09 | 35.07804 | -116.09493 | 27930 ft | 277 kts | 228° |
| 2026-05-05 16:09 | 35.06496 | -116.11215 | 27929 ft | 276 kts | 228° |
| 2026-05-05 16:09 | 35.05195 | -116.12928 | 27929 ft | 276 kts | 228° |
| 2026-05-05 16:10 | 35.03889 | -116.14645 | 27929 ft | 275 kts | 228° |
| 2026-05-05 16:10 | 35.02589 | -116.16356 | 27928 ft | 275 kts | 228° |
| 2026-05-05 16:10 | 35.01288 | -116.18064 | 27926 ft | 275 kts | 228° |
| 2026-05-05 16:10 | 34.99990 | -116.19770 | 27925 ft | 274 kts | 228° |
| 2026-05-05 16:11 | 34.98690 | -116.21476 | 27924 ft | 274 kts | 228° |
| 2026-05-05 16:11 | 34.94822 | -116.26551 | 27918 ft | 273 kts | 228° |
| 2026-05-05 16:12 | 34.93534 | -116.28239 | 27922 ft | 272 kts | 228° |
| 2026-05-05 16:12 | 34.90956 | -116.31613 | 27917 ft | 271 kts | 228° |
| 2026-05-05 16:13 | 34.87106 | -116.36648 | 27914 ft | 270 kts | 228° |
| 2026-05-05 16:13 | 34.85824 | -116.38324 | 27920 ft | 270 kts | 228° |
| 2026-05-05 16:13 | 34.84543 | -116.39997 | 27916 ft | 270 kts | 228° |
| 2026-05-05 16:14 | 34.81978 | -116.43343 | 27921 ft | 270 kts | 228° |
| 2026-05-05 16:14 | 34.79410 | -116.46670 | 27919 ft | 269 kts | 226° |
| 2026-05-05 16:15 | 34.76783 | -116.49902 | 27928 ft | 268 kts | 227° |
| 2026-05-05 16:15 | 34.74176 | -116.53124 | 27923 ft | 267 kts | 227° |
| 2026-05-05 16:16 | 34.71565 | -116.56333 | 27927 ft | 266 kts | 227° |
| 2026-05-05 16:16 | 34.68988 | -116.59503 | 27933 ft | 265 kts | 227° |
| 2026-05-05 16:17 | 34.66395 | -116.62690 | 27929 ft | 265 kts | 227° |
| 2026-05-05 16:17 | 34.65100 | -116.64278 | 27929 ft | 264 kts | 227° |
| 2026-05-05 16:18 | 34.62512 | -116.67453 | 27924 ft | 265 kts | 227° |
| 2026-05-05 16:18 | 34.61217 | -116.69041 | 27923 ft | 265 kts | 227° |
| 2026-05-05 16:18 | 34.58599 | -116.72255 | 27581 ft | 274 kts | 227° |
| 2026-05-05 16:19 | 34.57243 | -116.73918 | 27320 ft | 280 kts | 227° |
| 2026-05-05 16:19 | 34.55861 | -116.75606 | 27063 ft | 285 kts | 227° |
| 2026-05-05 16:19 | 34.53042 | -116.79055 | 26541 ft | 290 kts | 227° |
| 2026-05-05 16:20 | 34.50191 | -116.82538 | 26041 ft | 292 kts | 227° |
| 2026-05-05 16:20 | 34.47332 | -116.86025 | 25537 ft | 292 kts | 227° |
| 2026-05-05 16:21 | 34.44459 | -116.89529 | 25054 ft | 293 kts | 227° |
| 2026-05-05 16:22 | 34.40147 | -116.94777 | 24335 ft | 293 kts | 227° |
| 2026-05-05 16:22 | 34.37298 | -116.98242 | 23881 ft | 292 kts | 227° |
| 2026-05-05 16:23 | 34.34445 | -117.01705 | 23406 ft | 289 kts | 227° |
| 2026-05-05 16:23 | 34.33027 | -117.03424 | 23144 ft | 288 kts | 227° |
| 2026-05-05 16:23 | 34.30194 | -117.06865 | 22606 ft | 288 kts | 227° |
| 2026-05-05 16:24 | 34.28778 | -117.08578 | 22346 ft | 288 kts | 227° |
| 2026-05-05 16:24 | 34.27363 | -117.10290 | 22086 ft | 288 kts | 227° |
| 2026-05-05 16:24 | 34.24540 | -117.13689 | 21569 ft | 285 kts | 225° |
| 2026-05-05 16:25 | 34.23112 | -117.15352 | 21319 ft | 284 kts | 226° |
| 2026-05-05 16:25 | 34.20348 | -117.18748 | 20815 ft | 283 kts | 226° |
| 2026-05-05 16:25 | 34.18961 | -117.20421 | 20557 ft | 282 kts | 226° |
| 2026-05-05 16:26 | 34.16188 | -117.23756 | 20075 ft | 280 kts | 226° |
| 2026-05-05 16:26 | 34.13441 | -117.27072 | 19582 ft | 279 kts | 226° |
| 2026-05-05 16:27 | 34.12066 | -117.28723 | 19346 ft | 278 kts | 226° |
| 2026-05-05 16:27 | 34.10697 | -117.30373 | 19107 ft | 278 kts | 226° |
| 2026-05-05 16:27 | 34.09328 | -117.32021 | 18860 ft | 277 kts | 226° |
| 2026-05-05 16:27 | 34.07980 | -117.33639 | 18633 ft | 276 kts | 226° |
| 2026-05-05 16:28 | 34.06624 | -117.35271 | 18397 ft | 275 kts | 227° |
| 2026-05-05 16:28 | 34.05269 | -117.36898 | 18138 ft | 275 kts | 226° |
| 2026-05-05 16:28 | 34.03917 | -117.38523 | 17861 ft | 274 kts | 227° |
| 2026-05-05 16:28 | 34.02570 | -117.40139 | 17596 ft | 273 kts | 226° |
| 2026-05-05 16:29 | 34.01221 | -117.41757 | 17300 ft | 274 kts | 227° |
| 2026-05-05 16:29 | 33.99867 | -117.43385 | 16907 ft | 277 kts | 227° |
| 2026-05-05 16:29 | 33.98501 | -117.45025 | 16525 ft | 278 kts | 226° |
| 2026-05-05 16:29 | 33.97131 | -117.46662 | 16145 ft | 278 kts | 226° |
| 2026-05-05 16:30 | 33.95756 | -117.48305 | 15771 ft | 278 kts | 226° |
| 2026-05-05 16:30 | 33.94388 | -117.49945 | 15399 ft | 277 kts | 226° |
| 2026-05-05 16:30 | 33.93022 | -117.51580 | 15036 ft | 276 kts | 227° |
| 2026-05-05 16:30 | 33.91867 | -117.53407 | 14678 ft | 274 kts | 243° |
| 2026-05-05 16:31 | 33.91174 | -117.55540 | 14323 ft | 274 kts | 253° |
| 2026-05-05 16:31 | 33.90626 | -117.57733 | 13973 ft | 274 kts | 252° |
| 2026-05-05 16:31 | 33.90050 | -117.59915 | 13592 ft | 273 kts | 252° |
| 2026-05-05 16:31 | 33.89489 | -117.62090 | 13191 ft | 272 kts | 252° |
| 2026-05-05 16:32 | 33.88933 | -117.64260 | 12808 ft | 271 kts | 252° |
| 2026-05-05 16:32 | 33.88373 | -117.66425 | 12420 ft | 270 kts | 252° |
| 2026-05-05 16:32 | 33.87818 | -117.68577 | 12043 ft | 269 kts | 252° |
| 2026-05-05 16:32 | 33.87262 | -117.70722 | 11673 ft | 268 kts | 252° |
| 2026-05-05 16:33 | 33.86705 | -117.72868 | 11300 ft | 269 kts | 253° |
| 2026-05-05 16:33 | 33.86153 | -117.75017 | 10930 ft | 269 kts | 253° |
| 2026-05-05 16:33 | 33.85656 | -117.77156 | 10570 ft | 269 kts | 254° |
| 2026-05-05 16:33 | 33.85105 | -117.79312 | 10205 ft | 270 kts | 251° |
| 2026-05-05 16:34 | 33.84521 | -117.81462 | 9851 ft | 272 kts | 253° |
| 2026-05-05 16:34 | 33.83983 | -117.83631 | 9424 ft | 265 kts | 254° |
| 2026-05-05 16:34 | 33.83495 | -117.85667 | 8935 ft | 241 kts | 253° |
| 2026-05-05 16:34 | 33.82980 | -117.87512 | 8465 ft | 226 kts | 251° |
| 2026-05-05 16:35 | 33.82500 | -117.89273 | 7998 ft | 218 kts | 253° |
| 2026-05-05 16:35 | 33.82205 | -117.90443 | 7688 ft | 215 kts | 253° |
| 2026-05-05 16:35 | 33.81780 | -117.92123 | 7241 ft | 211 kts | 253° |
| 2026-05-05 16:35 | 33.81246 | -117.93749 | 6793 ft | 210 kts | 237° |
| 2026-05-05 16:36 | 33.80104 | -117.94819 | 6355 ft | 213 kts | 202° |
| 2026-05-05 16:36 | 33.78658 | -117.95202 | 5865 ft | 213 kts | 191° |
| 2026-05-05 16:36 | 33.77195 | -117.95481 | 5404 ft | 212 kts | 191° |
| 2026-05-05 16:36 | 33.75741 | -117.95751 | 4950 ft | 210 kts | 191° |
| 2026-05-05 16:37 | 33.74301 | -117.96020 | 4488 ft | 209 kts | 191° |
| 2026-05-05 16:37 | 33.72871 | -117.96287 | 4070 ft | 207 kts | 191° |
| 2026-05-05 16:37 | 33.71455 | -117.96549 | 3617 ft | 205 kts | 191° |
| 2026-05-05 16:37 | 33.70053 | -117.96809 | 3161 ft | 202 kts | 192° |
| 2026-05-05 16:38 | 33.68860 | -117.97512 | 3009 ft | 184 kts | 227° |
| 2026-05-05 16:38 | 33.68362 | -117.98857 | 3011 ft | 179 kts | 267° |
| 2026-05-05 16:38 | 33.68758 | -118.00252 | 2968 ft | 183 kts | 308° |
| 2026-05-05 16:38 | 33.69854 | -118.01033 | 2977 ft | 188 kts | 339° |
| 2026-05-05 16:39 | 33.71096 | -118.01531 | 2957 ft | 188 kts | 331° |
| 2026-05-05 16:39 | 33.72098 | -118.02472 | 2940 ft | 173 kts | 311° |
| 2026-05-05 16:39 | 33.72836 | -118.03560 | 2496 ft | 164 kts | 306° |
| 2026-05-05 16:39 | 33.73489 | -118.04607 | 2216 ft | 151 kts | 304° |
| 2026-05-05 16:40 | 33.74077 | -118.05588 | 2028 ft | 141 kts | 303° |
| 2026-05-05 16:40 | 33.74693 | -118.06473 | 1884 ft | 136 kts | 310° |
| 2026-05-05 16:40 | 33.75323 | -118.07294 | 1718 ft | 129 kts | 310° |
| 2026-05-05 16:40 | 33.75916 | -118.08045 | 1537 ft | 121 kts | 309° |
| 2026-05-05 16:41 | 33.76500 | -118.08774 | 1327 ft | 120 kts | 312° |
| 2026-05-05 16:41 | 33.77084 | -118.09478 | 1143 ft | 119 kts | 312° |
| 2026-05-05 16:41 | 33.77635 | -118.10127 | 1019 ft | 98 kts | 312° |
| 2026-05-05 16:41 | 33.78100 | -118.10681 | 894 ft | 92 kts | 311° |
| 2026-05-05 16:42 | 33.78514 | -118.11180 | 776 ft | 89 kts | 311° |
| 2026-05-05 16:42 | 33.78936 | -118.11675 | 681 ft | 82 kts | 312° |
| 2026-05-05 16:42 | 33.79339 | -118.12162 | 581 ft | 83 kts | 309° |
| 2026-05-05 16:42 | 33.79722 | -118.12673 | 501 ft | 83 kts | 313° |
| 2026-05-05 16:43 | 33.80137 | -118.13159 | 349 ft | 81 kts | 311° |
| 2026-05-05 16:43 | 33.80520 | -118.13608 | 242 ft | 76 kts | 311° |
| 2026-05-05 16:43 | 33.80887 | -118.14053 | 136 ft | 74 kts | 312° |
| 2026-05-05 16:43 | 33.81243 | -118.14485 | 45 ft | 71 kts | 313° |
| 2026-05-05 16:44 | 33.81543 | -118.14851 | 45 ft | 47 kts | 314° |
| 2026-05-05 16:44 | 33.81695 | -118.15034 | 48 ft | 17 kts | 314° |
| 2026-05-05 16:44 | 33.81774 | -118.15130 | 49 ft | 20 kts | 314° |
| 2026-05-05 16:44 | 33.81843 | -118.15227 | 49 ft | 14 kts | 291° |
| 2026-05-05 16:45 | 33.81855 | -118.15342 | 49 ft | 6 kts | 262° |
| 2026-05-05 16:45 | 33.81820 | -118.15366 | 49 ft | 10 kts | 159° |
| 2026-05-05 16:45 | 33.81751 | -118.15288 | 48 ft | 17 kts | 134° |
| 2026-05-05 16:45 | 33.81663 | -118.15180 | 47 ft | 19 kts | 134° |
| 2026-05-05 16:46 | 33.81584 | -118.15101 | 45 ft | 12 kts | 167° |
| 2026-05-05 16:46 | 33.81479 | -118.15100 | 43 ft | 18 kts | 179° |
| 2026-05-05 16:46 | 33.81378 | -118.15099 | 42 ft | 11 kts | 185° |
| 2026-05-05 16:46 | 33.81311 | -118.15111 | 42 ft | 8 kts | 228° |
| 2026-05-05 16:47 | 33.81306 | -118.15176 | 43 ft | 8 kts | 270° |
| 2026-05-05 16:47 | 33.81307 | -118.15227 | 44 ft | 4 kts | 272° |
| 2026-05-05 16:47 | 33.81283 | -118.15281 | 44 ft | 10 kts | 212° |
| 2026-05-05 16:47 | 33.81237 | -118.15328 | 45 ft | 7 kts | 265° |
| 2026-05-05 16:48 | 33.81237 | -118.15337 | 45 ft | 0 kts | 268° |